createdAt,value
2023-02-17T00:00:27.513Z,1001.21
2023-02-17T00:01:27.496Z,1001.20
2023-02-17T00:02:27.515Z,1001.18
2023-02-17T00:03:27.493Z,1001.23
2023-02-17T00:04:27.450Z,1001.17
2023-02-17T00:05:27.435Z,1001.21
2023-02-17T00:06:27.421Z,1001.23
2023-02-17T00:07:27.404Z,1001.20
2023-02-17T00:08:27.385Z,1001.26
2023-02-17T00:09:27.369Z,1001.22
2023-02-17T00:10:27.349Z,1001.26
2023-02-17T00:11:27.335Z,1001.25
2023-02-17T00:12:27.323Z,1001.20
2023-02-17T00:13:27.312Z,1001.22
2023-02-17T00:14:27.287Z,1001.24
2023-02-17T00:15:27.267Z,1001.22
2023-02-17T00:16:27.255Z,1001.21
2023-02-17T00:17:27.235Z,1001.12
2023-02-17T00:18:27.220Z,1001.15
2023-02-17T00:19:27.218Z,1001.14
2023-02-17T00:20:27.185Z,1001.16
2023-02-17T00:21:27.180Z,1001.12
2023-02-17T00:22:27.154Z,1001.17
2023-02-17T00:23:27.135Z,1001.17
2023-02-17T00:24:27.120Z,1001.15
2023-02-17T00:25:27.103Z,1001.22
2023-02-17T00:26:27.100Z,1001.20
2023-02-17T00:27:27.080Z,1001.19
2023-02-17T00:28:27.059Z,1001.23
2023-02-17T00:29:27.044Z,1001.20
2023-02-17T00:30:27.096Z,1001.18
2023-02-17T00:31:27.117Z,1001.14
2023-02-17T00:32:26.992Z,1001.23
2023-02-17T00:33:26.977Z,1001.14
2023-02-17T00:34:26.959Z,1001.16
2023-02-17T00:35:26.946Z,1001.14
2023-02-17T00:36:26.932Z,1001.09
2023-02-17T00:37:26.951Z,1001.13
2023-02-17T00:38:26.899Z,1001.13
2023-02-17T00:39:26.886Z,1001.10
2023-02-17T00:40:26.870Z,1001.09
2023-02-17T00:41:26.863Z,1001.09
2023-02-17T00:42:26.834Z,1001.09
2023-02-17T00:43:26.816Z,1001.11
2023-02-17T00:44:26.804Z,1001.11
2023-02-17T00:45:26.787Z,1001.05
2023-02-17T00:46:26.856Z,1001.05
2023-02-17T00:47:26.759Z,1001.07
2023-02-17T00:48:26.780Z,1001.05
2023-02-17T00:49:26.721Z,1001.03
2023-02-17T00:50:26.701Z,1001.07
2023-02-17T00:51:26.726Z,1001.06
2023-02-17T00:52:26.669Z,1001.08
2023-02-17T00:53:26.658Z,1001.11
2023-02-17T00:54:26.639Z,1001.10
2023-02-17T00:55:26.640Z,1001.06
2023-02-17T00:56:26.604Z,1001.09
2023-02-17T00:57:26.595Z,1001.09
2023-02-17T00:58:26.576Z,1001.14
2023-02-17T00:59:26.569Z,1001.09
2023-02-17T01:00:26.541Z,1001.09
2023-02-17T01:01:26.561Z,1001.09
2023-02-17T01:02:26.508Z,1001.04
2023-02-17T01:03:26.488Z,1001.12
2023-02-17T01:04:26.554Z,1001.07
2023-02-17T01:05:26.468Z,1001.10
2023-02-17T01:06:26.444Z,1001.14
2023-02-17T01:07:26.430Z,1001.13
2023-02-17T01:08:26.406Z,1001.16
2023-02-17T01:09:26.394Z,1001.12
2023-02-17T01:10:26.375Z,1001.13
2023-02-17T01:11:26.372Z,1001.11
2023-02-17T01:12:26.344Z,1001.12
2023-02-17T01:13:26.325Z,1001.11
2023-02-17T01:14:26.314Z,1001.11
2023-02-17T01:15:26.300Z,1001.11
2023-02-17T01:16:26.324Z,1001.11
2023-02-17T01:17:26.264Z,1001.12
2023-02-17T01:18:26.242Z,1001.14
2023-02-17T01:19:26.227Z,1001.15
2023-02-17T01:20:26.224Z,1001.15
2023-02-17T01:21:26.203Z,1001.18
2023-02-17T01:22:26.181Z,1001.18
2023-02-17T01:23:26.164Z,1001.16
2023-02-17T01:24:26.163Z,1001.21
2023-02-17T01:25:26.131Z,1001.20
2023-02-17T01:26:26.118Z,1001.22
2023-02-17T01:27:26.096Z,1001.18
2023-02-17T01:28:26.081Z,1001.20
2023-02-17T01:29:26.064Z,1001.13
2023-02-17T01:30:26.077Z,1001.15
2023-02-17T01:31:26.093Z,1001.11
2023-02-17T01:32:26.050Z,1001.06
2023-02-17T01:33:26.000Z,1001.11
2023-02-17T01:34:25.980Z,1001.08
2023-02-17T01:35:25.973Z,1001.09
2023-02-17T01:36:25.949Z,1001.07
2023-02-17T01:37:25.943Z,1001.08
2023-02-17T01:38:25.921Z,1001.07
2023-02-17T01:39:25.905Z,1001.07
2023-02-17T01:40:25.885Z,1001.04
2023-02-17T01:41:25.872Z,1001.10
2023-02-17T01:42:25.853Z,1001.07
2023-02-17T01:43:25.857Z,1001.08
2023-02-17T01:44:25.821Z,1001.09
2023-02-17T01:45:25.825Z,1001.08
2023-02-17T01:46:25.812Z,1001.13
2023-02-17T01:47:25.767Z,1001.13
2023-02-17T01:48:25.755Z,1001.13
2023-02-17T01:49:25.735Z,1001.09
2023-02-17T01:50:25.723Z,1001.06
2023-02-17T01:51:25.702Z,1001.05
2023-02-17T01:52:25.685Z,1001.01
2023-02-17T01:53:25.674Z,1001.01
2023-02-17T01:54:25.650Z,1001.00
2023-02-17T01:55:25.642Z,1000.99
2023-02-17T01:56:25.624Z,1001.01
2023-02-17T01:57:25.605Z,1001.03
2023-02-17T01:58:25.594Z,1001.00
2023-02-17T01:59:25.574Z,1000.98
2023-02-17T02:00:25.557Z,1000.97
2023-02-17T02:01:25.535Z,1000.93
2023-02-17T02:02:25.600Z,1000.95
2023-02-17T02:03:25.501Z,1000.94
2023-02-17T02:04:25.502Z,1000.96
2023-02-17T02:05:25.474Z,1000.98
2023-02-17T02:06:25.457Z,1000.95
2023-02-17T02:07:25.434Z,1000.96
2023-02-17T02:08:25.419Z,1000.97
2023-02-17T02:09:25.405Z,1000.93
2023-02-17T02:10:25.392Z,1000.95
2023-02-17T02:11:25.373Z,1000.90
2023-02-17T02:12:25.365Z,1000.93
2023-02-17T02:13:25.348Z,1000.89
2023-02-17T02:14:25.331Z,1000.87
2023-02-17T02:15:25.312Z,1000.86
2023-02-17T02:16:25.322Z,1000.80
2023-02-17T02:17:25.277Z,1000.86
2023-02-17T02:18:25.262Z,1000.84
2023-02-17T02:19:25.245Z,1000.78
2023-02-17T02:20:25.233Z,1000.74
2023-02-17T02:21:25.222Z,1000.72
2023-02-17T02:22:25.199Z,1000.74
2023-02-17T02:23:25.200Z,1000.73
2023-02-17T02:24:25.172Z,1000.72
2023-02-17T02:25:25.152Z,1000.69
2023-02-17T02:26:25.139Z,1000.68
2023-02-17T02:27:25.128Z,1000.66
2023-02-17T02:28:25.106Z,1000.66
2023-02-17T02:29:25.086Z,1000.65
2023-02-17T02:30:25.100Z,1000.61
2023-02-17T02:31:25.143Z,1000.67
2023-02-17T02:32:25.043Z,1000.62
2023-02-17T02:33:25.025Z,1000.55
2023-02-17T02:34:25.010Z,1000.55
2023-02-17T02:35:24.990Z,1000.52
2023-02-17T02:36:24.977Z,1000.56
2023-02-17T02:37:24.970Z,1000.47
2023-02-17T02:38:24.940Z,1000.50
2023-02-17T02:39:24.926Z,1000.53
2023-02-17T02:40:24.910Z,1000.46
2023-02-17T02:41:24.891Z,1000.48
2023-02-17T02:42:24.877Z,1000.46
2023-02-17T02:43:24.861Z,1000.41
2023-02-17T02:44:24.842Z,1000.41
2023-02-17T02:45:24.861Z,1000.36
2023-02-17T02:46:24.810Z,1000.37
2023-02-17T02:47:24.791Z,1000.34
2023-02-17T02:48:24.780Z,1000.36
2023-02-17T02:49:24.759Z,1000.29
2023-02-17T02:50:24.748Z,1000.22
2023-02-17T02:51:24.728Z,1000.18
2023-02-17T02:52:24.712Z,1000.17
2023-02-17T02:53:24.721Z,1000.17
2023-02-17T02:54:24.689Z,1000.16
2023-02-17T02:55:24.673Z,1000.14
2023-02-17T02:56:24.650Z,1000.12
2023-02-17T02:57:24.640Z,1000.09
2023-02-17T02:58:24.618Z,1000.17
2023-02-17T02:59:24.596Z,1000.17
2023-02-17T03:00:24.586Z,1000.16
2023-02-17T03:01:24.590Z,1000.19
2023-02-17T03:02:24.551Z,1000.14
2023-02-17T03:03:24.537Z,1000.16
2023-02-17T03:04:24.518Z,1000.14
2023-02-17T03:05:24.500Z,1000.12
2023-02-17T03:06:24.517Z,1000.10
2023-02-17T03:07:24.529Z,1000.09
2023-02-17T03:08:24.455Z,1000.09
2023-02-17T03:09:24.437Z,1000.12
2023-02-17T03:10:24.429Z,1000.06
2023-02-17T03:11:24.400Z,1000.07
2023-02-17T03:12:24.387Z,1000.11
2023-02-17T03:13:24.370Z,1000.11
2023-02-17T03:14:24.369Z,1000.11
2023-02-17T03:15:24.340Z,1000.06
2023-02-17T03:16:24.406Z,1000.05
2023-02-17T03:17:24.303Z,1000.04
2023-02-17T03:18:24.288Z,1000.08
2023-02-17T03:19:24.273Z,1000.03
2023-02-17T03:20:24.270Z,999.97
2023-02-17T03:21:24.246Z,1000.06
2023-02-17T03:22:24.226Z,1000.03
2023-02-17T03:23:24.212Z,999.95
2023-02-17T03:24:24.197Z,999.97
2023-02-17T03:25:24.179Z,999.97
2023-02-17T03:26:24.158Z,1000.01
2023-02-17T03:27:24.142Z,999.92
2023-02-17T03:28:24.129Z,999.91
2023-02-17T03:29:24.112Z,999.90
2023-02-17T03:30:24.158Z,999.92
2023-02-17T03:31:24.133Z,999.95
2023-02-17T03:32:24.099Z,999.92
2023-02-17T03:33:24.045Z,999.95
2023-02-17T03:34:24.043Z,999.92
2023-02-17T03:35:24.006Z,999.90
2023-02-17T03:36:23.996Z,999.90
2023-02-17T03:37:23.979Z,999.92
2023-02-17T03:38:23.964Z,999.89
2023-02-17T03:39:23.943Z,999.95
2023-02-17T03:40:23.930Z,999.95
2023-02-17T03:41:23.918Z,999.90
2023-02-17T03:42:23.909Z,999.93
2023-02-17T03:43:23.902Z,999.89
2023-02-17T03:44:23.877Z,999.89
2023-02-17T03:45:23.849Z,999.88
2023-02-17T03:46:23.838Z,999.87
2023-02-17T03:47:23.817Z,999.88
2023-02-17T03:48:23.801Z,999.87
2023-02-17T03:49:23.784Z,999.84
2023-02-17T03:50:23.768Z,999.86
2023-02-17T03:51:23.754Z,999.86
2023-02-17T03:52:23.737Z,999.88
2023-02-17T03:53:23.716Z,999.87
2023-02-17T03:54:23.717Z,999.85
2023-02-17T03:55:23.680Z,999.83
2023-02-17T03:56:23.669Z,999.83
2023-02-17T03:57:23.653Z,999.83
2023-02-17T03:58:23.652Z,999.82
2023-02-17T03:59:23.615Z,999.81
2023-02-17T04:00:23.625Z,999.83
2023-02-17T04:01:23.616Z,999.84
2023-02-17T04:02:23.573Z,999.91
2023-02-17T04:03:23.555Z,999.86
2023-02-17T04:04:23.629Z,999.84
2023-02-17T04:05:23.522Z,999.84
2023-02-17T04:06:23.520Z,999.87
2023-02-17T04:07:23.491Z,999.87
2023-02-17T04:08:23.473Z,999.88
2023-02-17T04:09:23.450Z,999.88
2023-02-17T04:10:23.434Z,999.93
2023-02-17T04:11:23.418Z,999.90
2023-02-17T04:12:23.406Z,999.94
2023-02-17T04:13:23.390Z,999.87
2023-02-17T04:14:23.380Z,999.86
2023-02-17T04:15:23.400Z,999.91
2023-02-17T04:16:23.340Z,999.88
2023-02-17T04:17:23.326Z,999.87
2023-02-17T04:18:23.316Z,999.95
2023-02-17T04:19:23.293Z,1000.00
2023-02-17T04:20:23.270Z,999.97
2023-02-17T04:21:23.273Z,999.99
2023-02-17T04:22:23.240Z,999.96
2023-02-17T04:23:23.223Z,999.98
2023-02-17T04:24:23.213Z,1000.00
2023-02-17T04:25:23.193Z,999.99
2023-02-17T04:26:23.184Z,1000.03
2023-02-17T04:27:23.159Z,999.99
2023-02-17T04:28:23.143Z,1000.00
2023-02-17T04:29:23.128Z,999.96
2023-02-17T04:30:23.128Z,1000.04
2023-02-17T04:31:23.216Z,1000.04
2023-02-17T04:32:23.082Z,1000.07
2023-02-17T04:33:23.071Z,999.97
2023-02-17T04:34:23.045Z,1000.08
2023-02-17T04:35:23.027Z,1000.05
2023-02-17T04:36:23.020Z,1000.04
2023-02-17T04:37:23.029Z,1000.04
2023-02-17T04:38:22.980Z,1000.00
2023-02-17T04:39:22.970Z,1000.08
2023-02-17T04:40:22.966Z,1000.07
2023-02-17T04:41:22.933Z,1000.11
2023-02-17T04:42:22.918Z,1000.04
2023-02-17T04:43:22.903Z,1000.10
2023-02-17T04:44:22.889Z,1000.09
2023-02-17T04:45:22.876Z,1000.07
2023-02-17T04:46:22.878Z,1000.20
2023-02-17T04:47:22.838Z,1000.15
2023-02-17T04:48:22.829Z,1000.11
2023-02-17T04:49:22.803Z,1000.13
2023-02-17T04:50:22.806Z,1000.15
2023-02-17T04:51:22.776Z,1000.14
2023-02-17T04:52:22.759Z,1000.14
2023-02-17T04:53:22.744Z,1000.13
2023-02-17T04:54:22.736Z,1000.17
2023-02-17T04:55:22.711Z,1000.09
2023-02-17T04:56:22.695Z,1000.11
2023-02-17T04:57:22.674Z,1000.02
2023-02-17T04:58:22.660Z,1000.01
2023-02-17T04:59:24.731Z,1000.08
2023-02-17T05:00:22.628Z,1000.02
2023-02-17T05:01:22.629Z,1000.06
2023-02-17T05:02:22.605Z,1000.07
2023-02-17T05:03:22.580Z,1000.11
2023-02-17T05:04:22.651Z,1000.03
2023-02-17T05:05:22.545Z,1000.13
2023-02-17T05:06:22.539Z,1000.05
2023-02-17T05:07:22.517Z,1000.11
2023-02-17T05:08:22.511Z,1000.08
2023-02-17T05:09:22.490Z,1000.13
2023-02-17T05:10:24.001Z,1000.14
2023-02-17T05:11:22.447Z,1000.24
2023-02-17T05:12:22.433Z,1000.13
2023-02-17T05:13:22.428Z,1000.12
2023-02-17T05:14:22.402Z,1000.09
2023-02-17T05:15:22.429Z,1000.06
2023-02-17T05:16:22.452Z,1000.05
2023-02-17T05:17:22.353Z,999.99
2023-02-17T05:18:22.342Z,999.99
2023-02-17T05:19:22.325Z,999.99
2023-02-17T05:20:22.307Z,1000.03
2023-02-17T05:21:22.297Z,999.98
2023-02-17T05:22:22.274Z,999.95
2023-02-17T05:23:22.259Z,999.99
2023-02-17T05:52:32.168Z,999.85
2023-02-17T05:53:32.578Z,999.87
2023-02-17T05:55:25.801Z,999.87
2023-02-17T05:56:26.227Z,999.91
2023-02-17T05:58:30.514Z,999.86
2023-02-17T05:59:29.971Z,999.99
2023-02-17T06:01:37.133Z,1000.04
2023-02-17T06:02:34.631Z,1000.00
2023-02-17T06:03:34.602Z,1000.03
2023-02-17T06:04:34.974Z,1000.05
2023-02-17T06:05:34.967Z,1000.11
2023-02-17T06:06:34.507Z,999.95
2023-02-17T06:07:34.501Z,999.98
2023-02-17T06:08:34.470Z,999.99
2023-02-17T06:09:34.454Z,999.95
2023-02-17T06:10:34.436Z,1000.02
2023-02-17T06:11:34.425Z,1000.03
2023-02-17T06:12:34.411Z,1000.03
2023-02-17T06:13:34.399Z,1000.10
2023-02-17T06:14:34.372Z,1000.09
2023-02-17T06:15:34.364Z,1000.07
2023-02-17T06:16:34.371Z,1000.13
2023-02-17T06:17:34.340Z,1000.18
2023-02-17T06:18:34.309Z,1000.17
2023-02-17T06:19:34.294Z,1000.22
2023-02-17T06:20:34.286Z,1000.22
2023-02-17T06:21:34.294Z,1000.22
2023-02-17T06:22:34.249Z,1000.20
2023-02-17T06:23:34.235Z,1000.16
2023-02-17T06:24:34.215Z,1000.24
2023-02-17T06:25:34.223Z,1000.15
2023-02-17T06:26:34.187Z,1000.11
2023-02-17T06:27:34.172Z,1000.17
2023-02-17T06:28:35.133Z,1000.08
2023-02-17T06:29:34.138Z,1000.11
2023-02-17T06:30:34.129Z,1000.12
2023-02-17T06:31:34.236Z,1000.11
2023-02-17T06:32:34.083Z,1000.10
2023-02-17T06:33:34.068Z,1000.10
2023-02-17T06:34:34.056Z,1000.09
2023-02-17T06:35:34.043Z,1000.21
2023-02-17T06:36:34.032Z,1000.11
2023-02-17T06:37:34.005Z,1000.13
2023-02-17T06:38:33.988Z,1000.15
2023-02-17T06:39:33.977Z,1000.15
2023-02-17T06:40:33.956Z,1000.15
2023-02-17T06:41:33.947Z,1000.13
2023-02-17T06:42:33.937Z,1000.11
2023-02-17T06:43:33.909Z,1000.18
2023-02-17T06:44:33.892Z,1000.15
2023-02-17T06:45:33.913Z,1000.15
2023-02-17T06:46:33.863Z,1000.13
2023-02-17T06:47:33.856Z,1000.15
2023-02-17T06:48:33.838Z,1000.13
2023-02-17T06:49:33.812Z,1000.10
2023-02-17T06:50:33.793Z,1000.14
2023-02-17T06:51:33.784Z,1000.15
2023-02-17T06:52:33.760Z,1000.17
2023-02-17T06:53:33.745Z,1000.18
2023-02-17T06:54:33.728Z,1000.12
2023-02-17T06:55:33.723Z,1000.16
2023-02-17T06:56:33.696Z,1000.18
2023-02-17T06:57:33.684Z,1000.27
2023-02-17T06:58:33.666Z,1000.22
2023-02-17T06:59:33.663Z,1000.19
2023-02-17T07:00:33.632Z,1000.21
2023-02-17T07:01:33.625Z,1000.31
2023-02-17T07:02:33.708Z,1000.30
2023-02-17T07:03:33.596Z,1000.33
2023-02-17T07:04:33.569Z,1000.30
2023-02-17T07:05:33.561Z,1000.34
2023-02-17T07:06:33.550Z,1000.42
2023-02-17T07:07:33.528Z,1000.48
2023-02-17T07:08:34.189Z,1000.46
2023-02-17T07:09:33.495Z,1000.50
2023-02-17T07:10:33.487Z,1000.53
2023-02-17T07:11:33.480Z,1000.49
2023-02-17T07:12:33.442Z,1000.55
2023-02-17T07:13:33.430Z,1000.57
2023-02-17T07:14:33.421Z,1000.61
2023-02-17T07:15:33.410Z,1000.67
2023-02-17T07:16:33.441Z,1000.62
2023-02-17T07:17:33.370Z,1000.63
2023-02-17T07:18:33.351Z,1000.62
2023-02-17T07:19:33.337Z,1000.61
2023-02-17T07:20:33.320Z,1000.64
2023-02-17T07:21:33.308Z,1000.58
2023-02-17T07:22:33.291Z,1000.60
2023-02-17T07:23:33.272Z,1000.59
2023-02-17T07:24:33.254Z,1000.59
2023-02-17T07:25:33.239Z,1000.55
2023-02-17T07:26:33.230Z,1000.49
2023-02-17T07:27:33.217Z,1000.54
2023-02-17T07:28:33.191Z,1000.58
2023-02-17T07:29:33.179Z,1000.58
2023-02-17T07:30:33.232Z,1000.54
2023-02-17T07:31:33.368Z,1000.58
2023-02-17T07:32:33.130Z,1000.57
2023-02-17T07:33:33.120Z,1000.59
2023-02-17T07:34:33.115Z,1000.62
2023-02-17T07:35:33.089Z,1000.62
2023-02-17T07:36:33.109Z,1000.63
2023-02-17T07:37:33.054Z,1000.62
2023-02-17T07:38:33.553Z,1000.65
2023-02-17T07:39:33.014Z,1000.57
2023-02-17T07:40:33.015Z,1000.62
2023-02-17T07:41:32.994Z,1000.63
2023-02-17T07:42:32.972Z,1000.68
2023-02-17T07:43:32.958Z,1000.53
2023-02-17T07:44:32.934Z,1000.60
2023-02-17T07:45:32.947Z,1000.59
2023-02-17T07:46:32.916Z,1000.55
2023-02-17T07:47:32.891Z,1000.59
2023-02-17T07:48:32.865Z,1000.60
2023-02-17T07:49:32.859Z,1000.61
2023-02-17T07:50:32.830Z,1000.65
2023-02-17T07:51:32.820Z,1000.64
2023-02-17T07:52:32.816Z,1000.68
2023-02-17T07:53:32.787Z,1000.68
2023-02-17T07:54:32.767Z,1000.71
2023-02-17T07:55:32.757Z,1000.66
2023-02-17T07:56:32.742Z,1000.63
2023-02-17T07:57:32.728Z,1000.56
2023-02-17T07:58:32.701Z,1000.54
2023-02-17T07:59:32.690Z,1000.48
2023-02-17T08:00:32.673Z,1000.61
2023-02-17T08:01:32.657Z,1000.64
2023-02-17T08:02:32.641Z,1000.63
2023-02-17T08:03:32.628Z,1000.69
2023-02-17T08:04:32.652Z,1000.64
2023-02-17T08:05:32.590Z,1000.69
2023-02-17T08:06:32.581Z,1000.68
2023-02-17T08:07:32.558Z,1000.71
2023-02-17T08:08:32.539Z,1000.68
2023-02-17T08:09:32.525Z,1000.72
2023-02-17T08:10:32.507Z,1000.72
2023-02-17T08:11:32.490Z,1000.70
2023-02-17T08:12:32.474Z,1000.77
2023-02-17T08:13:32.472Z,1000.70
2023-02-17T08:14:32.447Z,1000.59
2023-02-17T08:15:32.443Z,1000.66
2023-02-17T08:16:32.438Z,1000.72
2023-02-17T08:17:32.406Z,1000.72
2023-02-17T08:18:36.220Z,1000.58
2023-02-17T08:19:46.994Z,1000.66
2023-02-17T08:20:34.274Z,1000.67
2023-02-17T08:21:32.327Z,1000.69
2023-02-17T08:22:32.341Z,1000.72
2023-02-17T08:23:32.299Z,1000.68
2023-02-17T08:24:32.293Z,1000.74
2023-02-17T08:25:32.300Z,1000.73
2023-02-17T08:26:32.248Z,1000.71
2023-02-17T08:27:32.246Z,1000.65
2023-02-17T08:28:32.215Z,1000.72
2023-02-17T08:29:32.209Z,1000.73
2023-02-17T08:30:32.353Z,1000.70
2023-02-17T08:31:32.358Z,1000.75
2023-02-17T08:32:32.152Z,1000.70
2023-02-17T08:33:32.144Z,1000.68
2023-02-17T08:34:32.152Z,1000.66
2023-02-17T08:35:32.119Z,1000.62
2023-02-17T08:36:32.107Z,1000.59
2023-02-17T08:37:32.115Z,1000.64
2023-02-17T08:38:32.076Z,1000.67
2023-02-17T08:39:32.041Z,1000.77
2023-02-17T08:40:32.027Z,1000.68
2023-02-17T08:41:32.005Z,1000.68
2023-02-17T08:42:31.995Z,1000.68
2023-02-17T08:43:32.015Z,1000.62
2023-02-17T08:44:31.969Z,1000.73
2023-02-17T08:45:31.945Z,1000.61
2023-02-17T08:46:31.954Z,1000.70
2023-02-17T08:47:31.976Z,1000.63
2023-02-17T08:48:31.931Z,1000.66
2023-02-17T08:49:31.887Z,1000.62
2023-02-17T08:50:31.887Z,1000.62
2023-02-17T08:51:31.852Z,1000.57
2023-02-17T08:52:31.855Z,1000.53
2023-02-17T08:53:31.817Z,1000.59
2023-02-17T08:54:31.836Z,1000.66
2023-02-17T08:55:40.851Z,1000.58
2023-02-17T08:56:31.790Z,1000.58
2023-02-17T08:57:31.761Z,1000.62
2023-02-17T08:58:31.734Z,1000.58
2023-02-17T08:59:31.723Z,1000.62
2023-02-17T09:00:31.715Z,1000.59
2023-02-17T09:01:31.735Z,1000.62
2023-02-17T09:02:31.679Z,1000.64
2023-02-17T09:03:31.683Z,1000.66
2023-02-17T09:04:31.673Z,1000.56
2023-02-17T09:05:31.633Z,1000.64
2023-02-17T09:06:31.656Z,1000.67
2023-02-17T09:07:31.594Z,1000.61
2023-02-17T09:08:31.621Z,1000.60
2023-02-17T09:09:31.652Z,1000.65
2023-02-17T09:10:31.549Z,1000.65
2023-02-17T09:11:31.537Z,1000.60
2023-02-17T09:12:31.519Z,1000.58
2023-02-17T09:13:31.504Z,1000.59
2023-02-17T09:14:31.483Z,1000.66
2023-02-17T09:15:31.528Z,1000.60
2023-02-17T09:16:31.447Z,1000.60
2023-02-17T09:17:31.434Z,1000.62
2023-02-17T09:18:31.420Z,1000.63
2023-02-17T09:19:31.423Z,1000.67
2023-02-17T09:20:31.446Z,1000.61
2023-02-17T09:21:31.392Z,1000.66
2023-02-17T09:22:32.555Z,1000.65
2023-02-17T09:23:31.368Z,1000.67
2023-02-17T09:24:31.401Z,1000.59
2023-02-17T09:25:31.307Z,1000.56
2023-02-17T09:26:31.295Z,1000.59
2023-02-17T09:27:31.277Z,1000.66
2023-02-17T09:28:31.301Z,1000.53
2023-02-17T09:29:31.243Z,1000.62
2023-02-17T09:30:31.310Z,1000.55
2023-02-17T09:31:31.357Z,1000.60
2023-02-17T09:32:31.231Z,1000.62
2023-02-17T09:33:31.189Z,1000.68
2023-02-17T09:34:31.204Z,1000.64
2023-02-17T09:35:31.159Z,1000.66
2023-02-17T09:36:31.150Z,1000.66
2023-02-17T09:37:31.134Z,1000.59
2023-02-17T09:38:31.111Z,1000.57
2023-02-17T09:39:31.084Z,1000.52
2023-02-17T09:40:31.104Z,1000.52
2023-02-17T09:41:31.113Z,1000.51
2023-02-17T09:42:31.040Z,1000.42
2023-02-17T09:43:31.035Z,1000.43
2023-02-17T09:44:31.046Z,1000.36
2023-02-17T09:45:30.994Z,1000.42
2023-02-17T09:46:30.988Z,1000.45
2023-02-17T09:47:31.034Z,1000.49
2023-02-17T09:48:31.000Z,1000.42
2023-02-17T09:49:30.980Z,1000.48
2023-02-17T09:50:30.954Z,1000.53
2023-02-17T09:51:30.934Z,1000.53
2023-02-17T09:52:30.895Z,1000.50
2023-02-17T09:53:30.882Z,1000.53
2023-02-17T09:54:30.877Z,1000.52
2023-02-17T09:55:30.859Z,1000.54
2023-02-17T09:56:32.631Z,1000.59
2023-02-17T09:57:30.798Z,1000.60
2023-02-17T09:58:30.795Z,1000.64
2023-02-17T09:59:30.766Z,1000.65
2023-02-17T10:00:30.808Z,1000.65
2023-02-17T10:01:30.786Z,1000.67
2023-02-17T10:02:30.756Z,1000.67
2023-02-17T10:03:30.726Z,1000.69
2023-02-17T10:04:30.852Z,1000.81
2023-02-17T10:05:30.696Z,1000.75
2023-02-17T10:06:30.724Z,1000.71
2023-02-17T10:07:30.689Z,1000.70
2023-02-17T10:08:30.641Z,1000.74
2023-02-17T10:09:30.631Z,1000.76
2023-02-17T10:10:30.610Z,1000.79
2023-02-17T10:11:30.569Z,1000.75
2023-02-17T10:12:30.553Z,1000.82
2023-02-17T10:13:30.540Z,1000.77
2023-02-17T10:14:30.523Z,1000.80
2023-02-17T10:15:30.530Z,1000.79
2023-02-17T10:16:30.556Z,1000.80
2023-02-17T10:17:30.526Z,1000.84
2023-02-17T10:18:30.500Z,1000.75
2023-02-17T10:19:30.531Z,1000.79
2023-02-17T10:20:30.503Z,1000.77
2023-02-17T10:21:30.404Z,1000.71
2023-02-17T10:22:30.399Z,1000.71
2023-02-17T10:23:30.394Z,1000.73
2023-02-17T10:24:30.357Z,1000.81
2023-02-17T10:25:30.347Z,1000.82
2023-02-17T10:26:30.346Z,1000.80
2023-02-17T10:27:30.323Z,1000.77
2023-02-17T10:28:30.296Z,1000.89
2023-02-17T10:29:30.279Z,1000.78
2023-02-17T10:30:30.327Z,1000.83
2023-02-17T10:31:30.509Z,1000.79
2023-02-17T10:32:30.377Z,1000.79
2023-02-17T10:33:30.219Z,1000.86
2023-02-17T10:34:30.306Z,1000.96
2023-02-17T10:35:30.200Z,1000.89
2023-02-17T10:36:30.169Z,1000.91
2023-02-17T10:37:30.246Z,1000.96
2023-02-17T10:38:30.139Z,1000.97
2023-02-17T10:39:30.151Z,1000.94
2023-02-17T10:40:30.109Z,1000.98
2023-02-17T10:41:30.090Z,1000.95
2023-02-17T10:42:30.084Z,1000.97
2023-02-17T10:43:30.060Z,1001.00
2023-02-17T10:44:30.115Z,1001.04
2023-02-17T10:45:30.026Z,1001.06
2023-02-17T10:46:30.085Z,1001.09
2023-02-17T10:47:30.017Z,1001.01
2023-02-17T10:48:29.987Z,1001.05
2023-02-17T10:49:29.958Z,1001.05
2023-02-17T10:50:29.953Z,1001.04
2023-02-17T10:51:29.930Z,1001.01
2023-02-17T10:52:29.914Z,1001.07
2023-02-17T10:53:29.916Z,1000.97
2023-02-17T10:54:29.889Z,1001.00
2023-02-17T10:55:29.873Z,1001.05
2023-02-17T10:56:29.860Z,1001.04
2023-02-17T10:57:29.833Z,1001.06
2023-02-17T10:58:29.820Z,1001.03
2023-02-17T10:59:29.799Z,1000.97
2023-02-17T11:00:29.803Z,1000.96
2023-02-17T11:01:29.780Z,1001.04
2023-02-17T11:02:29.753Z,1001.02
2023-02-17T11:03:29.782Z,1001.01
2023-02-17T11:04:29.736Z,1000.99
2023-02-17T11:05:29.732Z,1000.98
2023-02-17T11:06:29.696Z,1001.01
2023-02-17T11:07:29.678Z,1000.94
2023-02-17T11:08:29.671Z,1001.03
2023-02-17T11:09:29.647Z,1001.02
2023-02-17T11:10:29.629Z,1001.02
2023-02-17T11:11:29.617Z,1000.96
2023-02-17T11:12:29.605Z,1000.96
2023-02-17T11:13:29.587Z,1001.00
2023-02-17T11:14:29.570Z,1000.97
2023-02-17T11:15:29.547Z,1000.99
2023-02-17T11:16:29.587Z,1000.99
2023-02-17T11:17:29.517Z,1000.91
2023-02-17T11:18:29.532Z,1000.90
2023-02-17T11:19:29.492Z,1000.90
2023-02-17T11:20:29.470Z,1000.84
2023-02-17T11:21:29.456Z,1000.86
2023-02-17T11:22:29.477Z,1000.81
2023-02-17T11:23:29.457Z,1000.84
2023-02-17T11:24:29.417Z,1000.82
2023-02-17T11:25:29.428Z,1000.81
2023-02-17T11:26:29.414Z,1000.78
2023-02-17T11:27:29.490Z,1000.81
2023-02-17T11:28:29.361Z,1000.70
2023-02-17T11:29:29.341Z,1000.72
2023-02-17T11:30:29.437Z,1000.68
2023-02-17T11:31:29.461Z,1000.71
2023-02-17T11:32:29.288Z,1000.64
2023-02-17T11:33:29.275Z,1000.65
2023-02-17T11:34:29.263Z,1000.63
2023-02-17T11:35:29.269Z,1000.68
2023-02-17T11:36:29.226Z,1000.69
2023-02-17T11:37:29.211Z,1000.73
2023-02-17T11:38:29.200Z,1000.70
2023-02-17T11:39:29.183Z,1000.68
2023-02-17T11:40:29.171Z,1000.59
2023-02-17T11:41:29.150Z,1000.64
2023-02-17T11:42:29.166Z,1000.64
2023-02-17T11:43:29.122Z,1000.63
2023-02-17T11:44:29.114Z,1000.59
2023-02-17T11:45:29.179Z,1000.46
2023-02-17T11:46:29.092Z,1000.51
2023-02-17T11:47:29.075Z,1000.50
2023-02-17T11:48:29.042Z,1000.44
2023-02-17T11:49:29.036Z,1000.43
2023-02-17T11:50:40.830Z,1000.49
2023-02-17T11:51:28.998Z,1000.50
2023-02-17T11:52:28.981Z,1000.53
2023-02-17T11:53:28.961Z,1000.52
2023-02-17T11:54:28.949Z,1000.51
2023-02-17T11:55:28.928Z,1000.54
2023-02-17T11:56:28.912Z,1000.65
2023-02-17T11:57:28.895Z,1000.58
2023-02-17T11:58:28.889Z,1000.53
2023-02-17T11:59:28.869Z,1000.51
2023-02-17T12:00:28.856Z,1000.45
2023-02-17T12:01:28.851Z,1000.53
2023-02-17T12:02:28.822Z,1000.53
2023-02-17T12:03:28.935Z,1000.58
2023-02-17T12:04:28.790Z,1000.63
2023-02-17T12:05:28.774Z,1000.62
2023-02-17T12:06:28.758Z,1000.53
2023-02-17T12:07:28.749Z,1000.59
2023-02-17T12:08:28.724Z,1000.58
2023-02-17T12:09:28.710Z,1000.56
2023-02-17T12:10:28.697Z,1000.56
2023-02-17T12:11:28.680Z,1000.54
2023-02-17T12:12:28.665Z,1000.52
2023-02-17T12:13:28.653Z,1000.55
2023-02-17T12:14:31.137Z,1000.63
2023-02-17T12:15:28.620Z,1000.64
2023-02-17T12:16:28.636Z,1000.60
2023-02-17T12:17:28.602Z,1000.60
2023-02-17T12:18:28.575Z,1000.60
2023-02-17T12:19:28.561Z,1000.62
2023-02-17T12:20:28.539Z,1000.53
2023-02-17T12:21:28.539Z,1000.57
2023-02-17T12:22:28.513Z,1000.55
2023-02-17T12:23:28.501Z,1000.51
2023-02-17T12:24:28.484Z,1000.50
2023-02-17T12:25:28.467Z,1000.53
2023-02-17T12:26:28.450Z,1000.54
2023-02-17T12:27:28.432Z,1000.49
2023-02-17T12:28:28.420Z,1000.46
2023-02-17T12:29:28.402Z,1000.50
2023-02-17T12:30:28.543Z,1000.41
2023-02-17T12:31:28.501Z,1000.38
2023-02-17T12:32:28.358Z,1000.45
2023-02-17T12:33:28.349Z,1000.41
2023-02-17T12:34:28.332Z,1000.35
2023-02-17T12:35:28.314Z,1000.42
2023-02-17T12:36:28.299Z,1000.33
2023-02-17T12:37:28.284Z,1000.35
2023-02-17T12:38:28.990Z,1000.32
2023-02-17T12:39:28.261Z,1000.40